Time;durP1;ratioP1;P1;durP2;ratioP2;P2;SDS_P1;SDS_P2;PMS_P1;PMS_P2;Temp;Humidity;BMP_temperature;BMP_pressure;BME280_temperature;BME280_humidity;BME280_pressure;Samples;Min_cycle;Max_cycle;Signal;HPM_P1;HPM_P2
2022/12/25 00:00:18;;;;;;;8.02;2.10;;;;;;;9.47;100.00;98695.34;4214883;27;20623;-61
2022/12/25 00:02:21;;;;;;;2.40;1.92;;;;;;;9.45;100.00;98692.88;4219293;27;20210;-61
2022/12/25 00:04:23;;;;;;;3.47;1.75;;;;;;;9.56;100.00;98693.94;4202216;28;20283;-60
2022/12/25 00:06:25;;;;;;;1.48;1.10;;;;;;;9.47;100.00;98695.34;4186894;28;20293;-60
2022/12/25 00:08:27;;;;;;;3.50;1.90;;;;;;;9.46;100.00;98696.41;4218836;27;20671;-61
2022/12/25 00:10:29;;;;;;;5.57;2.20;;;;;;;9.41;100.00;98696.34;4217802;28;20580;-61
2022/12/25 00:12:30;;;;;;;2.40;1.60;;;;;;;9.36;100.00;98698.94;4200927;28;20205;-60
2022/12/25 00:14:32;;;;;;;2.58;1.40;;;;;;;9.39;100.00;98695.72;4201464;28;20252;-61
2022/12/25 00:16:34;;;;;;;3.03;1.55;;;;;;;9.34;100.00;98690.16;4200710;28;20273;-63
2022/12/25 00:18:36;;;;;;;5.85;1.48;;;;;;;9.26;100.00;98690.50;4202198;28;20314;-63
2022/12/25 00:20:37;;;;;;;3.08;1.48;;;;;;;9.23;100.00;98682.78;4203256;28;20234;-61
2022/12/25 00:22:39;;;;;;;2.20;1.75;;;;;;;9.16;100.00;98679.34;4197362;28;20238;-61
2022/12/25 00:24:41;;;;;;;2.05;1.83;;;;;;;9.24;100.00;98679.00;4200958;28;20215;-62
2022/12/25 00:26:42;;;;;;;4.15;1.73;;;;;;;9.17;100.00;98673.66;4201344;28;20238;-62
2022/12/25 00:28:44;;;;;;;2.45;1.80;;;;;;;9.16;100.00;98674.69;4201101;28;20934;-62
2022/12/25 00:30:46;;;;;;;3.63;1.70;;;;;;;9.19;100.00;98670.66;4204608;28;20238;-62
2022/12/25 00:32:48;;;;;;;7.80;1.20;;;;;;;9.16;100.00;98676.63;4201677;28;20824;-61
2022/12/25 00:34:50;;;;;;;2.42;1.98;;;;;;;9.15;100.00;98677.69;4197998;28;20661;-61
2022/12/25 00:36:51;;;;;;;3.03;2.03;;;;;;;9.11;100.00;98684.69;4199981;28;20291;-62
2022/12/25 00:38:53;;;;;;;2.78;1.77;;;;;;;9.10;100.00;98666.66;4200260;28;20702;-62
2022/12/25 00:40:55;;;;;;;14.70;2.78;;;;;;;9.12;100.00;98675.41;4200058;28;20254;-62
2022/12/25 00:42:57;;;;;;;2.85;1.50;;;;;;;9.22;100.00;98679.22;4202057;28;20259;-60
2022/12/25 00:45:00;;;;;;;2.53;1.65;;;;;;;9.11;100.00;98679.22;4219099;27;20237;-60
2022/12/25 00:47:02;;;;;;;2.67;1.65;;;;;;;9.12;100.00;98683.59;4197296;28;20219;-62
2022/12/25 00:49:04;;;;;;;3.90;1.85;;;;;;;9.16;100.00;98682.06;4200381;28;20234;-60
2022/12/25 00:51:09;;;;;;;7.90;1.45;;;;;;;9.20;100.00;98677.78;4198018;28;20207;-62
2022/12/25 00:53:11;;;;;;;2.78;1.83;;;;;;;9.28;100.00;98678.28;4185491;28;20211;-59
2022/12/25 00:55:12;;;;;;;3.83;1.20;;;;;;;9.32;100.00;98675.88;4220671;27;20815;-62
2022/12/25 00:57:14;;;;;;;3.35;1.95;;;;;;;9.25;100.00;98686.09;4202105;28;21009;-61
2022/12/25 00:59:16;;;;;;;3.38;1.55;;;;;;;9.27;100.00;98689.41;4198948;28;20273;-60
2022/12/25 01:01:18;;;;;;;4.55;1.60;;;;;;;9.35;100.00;98687.16;4216140;27;20654;-61
2022/12/25 01:03:20;;;;;;;3.05;1.50;;;;;;;9.28;100.00;98691.09;4187459;28;20207;-60
2022/12/25 01:05:21;;;;;;;1.92;1.40;;;;;;;9.25;100.00;98702.50;4183896;28;20210;-60
2022/12/25 01:07:25;;;;;;;1.67;1.58;;;;;;;9.23;100.00;98712.81;4184225;28;20207;-60
2022/12/25 01:11:47;;;;;;;1.70;1.17;;;;;;;9.23;100.00;98705.44;4217495;28;20202;-60
2022/12/25 01:13:49;;;;;;;3.83;1.85;;;;;;;9.19;100.00;98708.91;4197338;28;20326;-60
2022/12/25 01:15:51;;;;;;;5.22;2.10;;;;;;;9.23;100.00;98696.44;4198685;28;20690;-60
2022/12/25 01:17:53;;;;;;;4.22;2.60;;;;;;;9.21;100.00;98695.84;4198875;28;20204;-60
2022/12/25 01:19:55;;;;;;;3.63;2.05;;;;;;;9.17;100.00;98695.50;4201069;28;20317;-61
2022/12/25 01:21:56;;;;;;;4.80;1.95;;;;;;;9.15;100.00;98696.81;4194572;28;20290;-60
2022/12/25 01:23:58;;;;;;;2.85;1.83;;;;;;;9.12;100.00;98697.25;4216420;28;20262;-60
2022/12/25 01:26:06;;;;;;;3.55;3.17;;;;;;;9.13;100.00;98710.69;4198069;28;20761;-59
2022/12/25 01:28:08;;;;;;;5.53;2.35;;;;;;;9.16;100.00;98706.66;4206659;28;20261;-60
2022/12/25 01:30:10;;;;;;;4.20;2.80;;;;;;;9.12;100.00;98708.19;4217098;28;20502;-60
2022/12/25 01:32:12;;;;;;;4.57;1.92;;;;;;;9.23;100.00;98705.44;4204217;28;20248;-59
2022/12/25 01:34:14;;;;;;;2.90;2.60;;;;;;;9.20;100.00;98710.56;4198973;28;20210;-59
2022/12/25 01:36:21;;;;;;;3.25;1.95;;;;;;;9.20;100.00;98705.09;4216836;28;20625;-58
2022/12/25 01:38:23;;;;;;;3.78;1.90;;;;;;;9.26;100.00;98698.69;4214170;28;20242;-61
2022/12/25 01:40:25;;;;;;;3.28;2.22;;;;;;;9.08;100.00;98687.91;4214720;28;20237;-59
2022/12/25 01:42:27;;;;;;;2.78;1.80;;;;;;;9.09;100.00;98695.00;4194798;28;20632;-59
2022/12/25 01:44:35;;;;;;;4.78;1.67;;;;;;;9.04;100.00;98694.88;4186328;28;20195;-61
2022/12/25 01:46:37;;;;;;;2.35;1.83;;;;;;;9.06;100.00;98690.00;4200615;28;20210;-60
2022/12/25 01:48:39;;;;;;;1.55;1.23;;;;;;;9.04;100.00;98689.44;4205793;28;20609;-59
2022/12/25 01:50:45;;;;;;;3.75;1.92;;;;;;;8.95;100.00;98688.13;4191686;28;20206;-59
2022/12/25 01:52:48;;;;;;;3.60;1.50;;;;;;;9.01;100.00;98682.53;4204399;28;20207;-60
2022/12/25 01:54:54;;;;;;;9.75;1.33;;;;;;;9.01;100.00;98677.06;4200961;28;20285;-59
2022/12/25 01:56:58;;;;;;;5.22;2.17;;;;;;;9.06;100.00;98682.66;4216658;28;20210;-61
2022/12/25 01:59:00;;;;;;;2.33;1.30;;;;;;;9.17;100.00;98667.34;4212706;28;20380;-61
2022/12/25 02:01:02;;;;;;;1.77;1.67;;;;;;;8.99;100.00;98675.66;4196250;28;20761;-59
2022/12/25 02:03:04;;;;;;;5.22;1.73;;;;;;;9.10;100.00;98669.38;4196138;28;20207;-60
2022/12/25 02:05:15;;;;;;;2.38;1.52;;;;;;;9.11;100.00;98666.41;4217303;28;20216;-58
2022/12/25 02:07:19;;;;;;;3.33;1.75;;;;;;;8.93;100.00;98671.13;4181719;28;20236;-60
2022/12/25 02:09:20;;;;;;;3.00;1.30;;;;;;;8.96;100.00;98670.69;4202375;28;20314;-62
2022/12/25 02:13:42;;;;;;;3.25;1.58;;;;;;;9.01;100.00;98679.00;4201977;28;20200;-59
2022/12/25 02:16:12;;;;;;;3.15;1.48;;;;;;;8.86;100.00;98671.25;4184592;28;20261;-59
2022/12/25 02:18:26;;;;;;;7.20;1.30;;;;;;;8.83;100.00;98665.44;4199185;28;20230;-59
2022/12/25 02:20:46;;;;;;;4.82;1.25;;;;;;;8.86;100.00;98668.53;4200029;28;20333;-59
2022/12/25 02:23:27;;;;;;;6.05;1.98;;;;;;;8.82;100.00;98663.78;4185918;28;20650;-61
2022/12/25 02:25:35;;;;;;;5.45;2.88;;;;;;;8.88;100.00;98651.94;4202597;28;20209;-59
2022/12/25 02:28:12;;;;;;;8.02;1.73;;;;;;;8.76;100.00;98648.34;4190134;28;20544;-59
2022/12/25 02:30:14;;;;;;;5.57;2.08;;;;;;;8.81;100.00;98645.75;4201303;28;20203;-60
2022/12/25 02:32:19;;;;;;;5.53;1.67;;;;;;;8.75;100.00;98639.31;4218801;27;20233;-60
2022/12/25 02:34:33;;;;;;;3.70;2.03;;;;;;;8.80;100.00;98644.06;4207384;28;20271;-60
2022/12/25 02:37:04;;;;;;;4.20;1.88;;;;;;;8.83;100.00;98651.78;4199983;28;20206;-61
2022/12/25 02:41:36;;;;;;;4.60;2.00;;;;;;;8.78;100.00;98644.31;4216531;27;20293;-59
2022/12/25 03:07:27;;;;;;;4.55;1.75;;;;;;;8.76;100.00;98604.69;4212666;28;20229;-61
2022/12/25 03:12:21;;;;;;;3.15;1.67;;;;;;;8.60;100.00;98621.75;4202839;27;20269;-61
2022/12/25 03:16:49;;;;;;;2.42;2.22;;;;;;;8.57;100.00;98616.78;4204581;28;20262;-60
2022/12/25 03:18:53;;;;;;;3.97;2.33;;;;;;;8.59;100.00;98620.09;4186992;28;20223;-61
2022/12/25 03:28:00;;;;;;;2.47;1.92;;;;;;;8.60;100.00;98610.84;4203102;27;20246;-60
2022/12/25 03:32:39;;;;;;;1.88;1.38;;;;;;;8.71;100.00;98601.84;4206911;27;20589;-58
2022/12/25 04:36:11;;;;;;;2.58;1.83;;;;;;;8.66;100.00;98571.72;4201603;28;20204;-61
2022/12/25 04:38:13;;;;;;;1.90;1.77;;;;;;;8.73;100.00;98561.50;4190499;28;20717;-59
2022/12/25 04:40:14;;;;;;;3.30;2.08;;;;;;;8.66;100.00;98560.78;4189767;28;20219;-61
2022/12/25 04:42:16;;;;;;;2.45;2.35;;;;;;;8.66;100.00;98566.25;4211456;28;20207;-60
2022/12/25 04:44:18;;;;;;;4.10;2.45;;;;;;;8.66;100.00;98558.91;4193863;28;20297;-60
2022/12/25 04:46:20;;;;;;;2.85;2.17;;;;;;;8.68;100.00;98548.59;4196605;28;20242;-61
2022/12/25 04:48:22;;;;;;;3.30;2.67;;;;;;;8.64;100.00;98543.84;4182186;28;20351;-61
2022/12/25 04:50:23;;;;;;;3.65;2.95;;;;;;;8.64;100.00;98546.56;4196459;28;20206;-59
2022/12/25 04:52:25;;;;;;;5.88;3.58;;;;;;;8.65;100.00;98542.78;4196090;28;20341;-60
2022/12/25 04:54:27;;;;;;;4.43;3.40;;;;;;;8.70;100.00;98532.00;4216209;28;20713;-59
2022/12/25 04:56:29;;;;;;;3.40;3.10;;;;;;;8.62;100.00;98529.63;4215952;28;20298;-59
2022/12/25 04:58:31;;;;;;;5.22;3.17;;;;;;;8.61;100.00;98525.25;4216887;27;20705;-60
2022/12/25 05:00:32;;;;;;;3.40;3.10;;;;;;;8.59;100.00;98528.19;4186193;28;20641;-60
2022/12/25 05:02:34;;;;;;;4.75;3.05;;;;;;;8.70;100.00;98526.53;4195585;28;20238;-60
2022/12/25 05:04:36;;;;;;;6.35;3.92;;;;;;;8.60;100.00;98512.66;4197906;28;20219;-60
2022/12/25 05:06:39;;;;;;;2.35;2.03;;;;;;;8.56;100.00;98528.66;4189906;28;20238;-59
2022/12/25 05:08:40;;;;;;;3.55;2.50;;;;;;;8.53;100.00;98528.28;4199104;28;20231;-60
2022/12/25 05:10:42;;;;;;;4.45;2.00;;;;;;;8.49;100.00;98524.41;4196045;28;20305;-59
2022/12/25 05:12:44;;;;;;;3.83;2.13;;;;;;;8.49;100.00;98527.13;4216542;28;20895;-60
2022/12/25 05:14:45;;;;;;;3.95;2.55;;;;;;;8.44;100.00;98524.28;4183589;28;20294;-60
2022/12/25 05:16:47;;;;;;;6.40;2.60;;;;;;;8.44;100.00;98529.72;4187983;28;20218;-60
2022/12/25 05:18:50;;;;;;;2.45;1.90;;;;;;;8.43;100.00;98537.06;4201120;28;20259;-60
2022/12/25 05:20:53;;;;;;;3.15;2.88;;;;;;;8.49;100.00;98535.31;4199685;28;20792;-61
2022/12/25 05:22:55;;;;;;;3.20;2.72;;;;;;;8.43;100.00;98536.25;4197915;28;22308;-60
2022/12/25 05:24:56;;;;;;;2.88;2.63;;;;;;;8.39;100.00;98532.31;4215712;28;20750;-60
2022/12/25 05:26:58;;;;;;;3.55;2.33;;;;;;;8.42;100.00;98543.59;4200911;28;20327;-63
2022/12/25 05:29:00;;;;;;;2.83;2.42;;;;;;;8.40;100.00;98544.88;4202778;28;20269;-60
2022/12/25 05:31:02;;;;;;;2.78;2.30;;;;;;;8.41;100.00;98557.47;4188173;28;20246;-60
2022/12/25 05:33:04;;;;;;;3.75;2.05;;;;;;;8.47;100.00;98556.50;4200950;28;20653;-59
2022/12/25 05:35:07;;;;;;;3.75;2.10;;;;;;;8.50;100.00;98556.88;4218309;28;20244;-60
2022/12/25 05:37:09;;;;;;;2.65;2.45;;;;;;;8.49;100.00;98559.84;4198075;28;20620;-60
2022/12/25 05:39:11;;;;;;;4.50;2.33;;;;;;;8.40;100.00;98556.63;4213334;28;20237;-60
2022/12/25 05:41:12;;;;;;;3.10;2.33;;;;;;;8.51;100.00;98546.81;4197881;28;20238;-59
2022/12/25 05:43:14;;;;;;;4.82;2.65;;;;;;;8.28;100.00;98546.78;4199407;28;20235;-61
2022/12/25 05:45:19;;;;;;;4.03;2.20;;;;;;;8.41;100.00;98546.56;4198210;28;20239;-60
2022/12/25 05:47:22;;;;;;;2.45;2.25;;;;;;;8.45;100.00;98542.28;4197430;28;20199;-58
2022/12/25 05:49:24;;;;;;;2.90;2.33;;;;;;;8.41;100.00;98543.84;4188424;28;20231;-59
2022/12/25 05:51:26;;;;;;;3.47;2.00;;;;;;;8.42;100.00;98534.59;4198552;28;20631;-59
2022/12/25 05:53:28;;;;;;;3.72;2.25;;;;;;;8.42;100.00;98537.31;4198638;28;20223;-60
2022/12/25 05:55:29;;;;;;;4.63;2.25;;;;;;;8.48;100.00;98541.84;4185513;28;20298;-60
2022/12/25 05:57:31;;;;;;;2.22;1.80;;;;;;;8.45;100.00;98531.38;4213503;28;20210;-61
2022/12/25 05:59:33;;;;;;;2.00;1.77;;;;;;;8.44;100.00;98541.47;4199062;28;20223;-61
2022/12/25 06:01:35;;;;;;;2.55;1.70;;;;;;;8.52;100.00;98543.00;4198798;28;20211;-62
2022/12/25 06:03:37;;;;;;;1.85;1.45;;;;;;;8.53;100.00;98534.59;4217575;27;20255;-61
2022/12/25 06:05:38;;;;;;;5.70;1.80;;;;;;;8.52;100.00;98529.38;4218577;27;20614;-60
2022/12/25 06:07:40;;;;;;;2.05;1.55;;;;;;;8.52;100.00;98521.19;4200905;28;20954;-60
2022/12/25 06:09:42;;;;;;;5.32;2.70;;;;;;;8.54;100.00;98527.25;4220379;27;20227;-59
2022/12/25 06:11:44;;;;;;;1.95;1.85;;;;;;;8.51;100.00;98528.56;4201122;28;20210;-60
2022/12/25 06:13:49;;;;;;;8.13;2.75;;;;;;;8.57;100.00;98524.88;4188819;28;20208;-60
2022/12/25 06:15:51;;;;;;;4.80;2.95;;;;;;;8.51;100.00;98525.84;4217982;27;20198;-59
2022/12/25 06:17:53;;;;;;;2.88;2.50;;;;;;;8.64;100.00;98531.06;4216664;27;20202;-58
2022/12/25 06:19:55;;;;;;;2.50;2.20;;;;;;;8.68;100.00;98528.69;4200938;28;20314;-59
2022/12/25 06:21:56;;;;;;;3.80;3.40;;;;;;;8.64;100.00;98524.75;4201820;28;20256;-59
2022/12/25 06:23:59;;;;;;;3.05;2.85;;;;;;;8.64;100.00;98524.75;4206301;28;20225;-60
2022/12/25 06:26:06;;;;;;;6.78;3.13;;;;;;;8.61;100.00;98519.78;4198665;28;20202;-59
2022/12/25 06:28:08;;;;;;;3.47;2.97;;;;;;;8.64;100.00;98524.75;4204236;28;20234;-59
2022/12/25 06:30:13;;;;;;;6.72;5.80;;;;;;;8.63;100.00;98528.56;4187236;28;20235;-61
2022/12/25 06:32:14;;;;;;;5.95;5.45;;;;;;;8.67;100.00;98522.38;4184600;28;20838;-60
2022/12/25 06:34:16;;;;;;;4.82;3.60;;;;;;;8.66;100.00;98522.59;4183462;28;20735;-60
2022/12/25 06:36:20;;;;;;;3.28;2.42;;;;;;;8.61;100.00;98530.69;4204504;28;20306;-61
2022/12/25 06:38:22;;;;;;;4.38;2.95;;;;;;;8.64;100.00;98525.59;4209243;28;20230;-59
2022/12/25 06:40:24;;;;;;;4.03;3.58;;;;;;;8.64;100.00;98522.03;4189212;28;20228;-59
2022/12/25 06:42:26;;;;;;;2.33;2.13;;;;;;;8.68;100.00;98520.50;4196443;28;20237;-59
2022/12/25 06:44:27;;;;;;;2.85;2.08;;;;;;;8.68;100.00;98513.13;4217727;27;20206;-59
2022/12/25 06:46:29;;;;;;;2.55;2.30;;;;;;;8.64;100.00;98519.28;4199194;28;20644;-60
2022/12/25 06:48:32;;;;;;;6.05;2.30;;;;;;;8.63;100.00;98518.44;4198045;28;20270;-60
2022/12/25 06:50:34;;;;;;;3.13;1.58;;;;;;;8.68;100.00;98515.03;4206178;28;20290;-59
2022/12/25 06:52:36;;;;;;;2.85;2.50;;;;;;;8.63;100.00;98512.19;4185039;28;20211;-62
2022/12/25 06:54:37;;;;;;;1.45;1.35;;;;;;;8.62;100.00;98510.53;4189755;28;20235;-61
2022/12/25 06:56:39;;;;;;;2.67;1.75;;;;;;;8.63;100.00;98506.72;4206380;28;20666;-61
2022/12/25 06:58:50;;;;;;;2.08;1.55;;;;;;;8.62;100.00;98505.88;4191804;28;20552;-61
2022/12/25 07:00:51;;;;;;;1.67;1.50;;;;;;;8.63;100.00;98506.72;4199158;28;20231;-60
2022/12/25 07:02:53;;;;;;;1.88;1.55;;;;;;;8.62;100.00;98510.53;4196535;28;20237;-61
2022/12/25 07:05:04;;;;;;;3.78;1.90;;;;;;;8.59;100.00;98508.25;4200555;28;20253;-60
2022/12/25 07:07:07;;;;;;;2.28;1.73;;;;;;;8.61;100.00;98506.16;4219048;28;20210;-60
2022/12/25 07:09:10;;;;;;;9.82;7.85;;;;;;;8.50;100.00;98501.50;4202335;28;20871;-60
2022/12/25 07:11:11;;;;;;;4.43;4.03;;;;;;;8.53;100.00;98501.03;4203644;28;20222;-60
2022/12/25 07:13:13;;;;;;;9.00;7.07;;;;;;;8.62;100.00;98496.91;4204037;28;20242;-60
2022/12/25 07:15:15;;;;;;;7.53;5.68;;;;;;;8.46;100.00;98500.31;4181662;28;20306;-60
2022/12/25 07:17:18;;;;;;;3.55;3.22;;;;;;;8.56;100.00;98485.03;4217604;27;20216;-61
2022/12/25 07:19:20;;;;;;;4.25;3.80;;;;;;;8.53;100.00;98493.69;4205481;28;20231;-60
2022/12/25 07:21:22;;;;;;;3.50;2.67;;;;;;;8.45;100.00;98487.75;4215306;27;20230;-59
2022/12/25 07:23:25;;;;;;;3.30;2.55;;;;;;;8.37;100.00;98493.56;4189385;28;20224;-61
2022/12/25 07:25:29;;;;;;;4.25;3.08;;;;;;;8.36;100.00;98498.19;4208169;28;20293;-61
2022/12/25 07:27:37;;;;;;;2.63;2.30;;;;;;;8.43;100.00;98493.44;4204104;28;20268;-60
2022/12/25 07:29:39;;;;;;;3.00;2.45;;;;;;;8.38;100.00;98493.34;4205575;28;20226;-61
2022/12/25 07:31:41;;;;;;;3.70;2.15;;;;;;;8.39;100.00;98499.59;4192159;28;20764;-60
2022/12/25 07:33:43;;;;;;;2.83;1.90;;;;;;;8.41;100.00;98505.66;4217637;27;20206;-59
2022/12/25 07:35:45;;;;;;;3.30;1.67;;;;;;;8.42;100.00;98510.88;4198173;28;20311;-59
2022/12/25 07:37:47;;;;;;;2.25;2.05;;;;;;;8.41;100.00;98525.56;4198411;28;20207;-61
2022/12/25 07:39:49;;;;;;;10.73;1.88;;;;;;;8.44;100.00;98527.84;4190257;28;20637;-61
2022/12/25 07:41:51;;;;;;;2.30;2.10;;;;;;;8.45;100.00;98515.88;4186591;28;20227;-60
2022/12/25 07:43:53;;;;;;;3.63;2.20;;;;;;;8.41;100.00;98508.41;4201200;28;20207;-60
2022/12/25 07:45:59;;;;;;;4.53;1.58;;;;;;;8.42;100.00;98504.59;4199262;28;20317;-61
2022/12/25 07:48:01;;;;;;;3.30;2.35;;;;;;;8.44;100.00;98505.19;4211435;27;20743;-60
2022/12/25 07:50:07;;;;;;;2.08;1.50;;;;;;;8.49;100.00;98505.31;4199480;28;20210;-62
2022/12/25 07:52:09;;;;;;;2.35;1.92;;;;;;;8.44;100.00;98507.91;4200926;28;20225;-61
2022/12/25 07:54:11;;;;;;;2.83;1.60;;;;;;;8.46;100.00;98516.69;4195224;28;20333;-61
2022/12/25 07:56:15;;;;;;;1.70;1.60;;;;;;;8.54;100.00;98519.06;4218053;27;20206;-61
2022/12/25 07:58:16;;;;;;;2.08;1.88;;;;;;;8.48;100.00;98514.56;4216366;27;20318;-60
2022/12/25 08:00:28;;;;;;;2.50;2.30;;;;;;;8.46;100.00;98517.53;4200141;28;20225;-60
2022/12/25 08:02:30;;;;;;;1.67;1.58;;;;;;;8.54;100.00;98514.44;4217619;27;20205;-60
2022/12/25 08:04:32;;;;;;;1.83;1.73;;;;;;;8.52;100.00;98515.72;4199246;28;20239;-62
2022/12/25 08:06:34;;;;;;;2.65;2.45;;;;;;;8.48;100.00;98503.66;4188521;28;20257;-61
2022/12/25 08:08:37;;;;;;;2.40;2.20;;;;;;;8.49;100.00;98508.03;4199452;28;20239;-61
2022/12/25 08:10:44;;;;;;;2.70;2.28;;;;;;;8.49;100.00;98502.59;4214622;27;20242;-62
2022/12/25 08:12:45;;;;;;;2.80;2.60;;;;;;;8.54;100.00;98497.25;4198314;28;20279;-61
2022/12/25 08:14:47;;;;;;;2.75;1.73;;;;;;;8.59;100.00;98489.16;4201776;28;20214;-62
2022/12/25 08:16:49;;;;;;;5.00;2.08;;;;;;;8.53;100.00;98482.78;4185911;28;20234;-60
2022/12/25 08:18:52;;;;;;;2.25;2.08;;;;;;;8.57;100.00;98483.13;4202423;28;20242;-61
2022/12/25 08:20:54;;;;;;;1.90;1.73;;;;;;;8.53;100.00;98479.22;4196461;28;20310;-60
2022/12/25 08:22:55;;;;;;;1.63;1.52;;;;;;;8.52;100.00;98477.56;4201568;28;20505;-61
2022/12/25 08:24:57;;;;;;;3.00;2.33;;;;;;;8.59;100.00;98470.91;4196111;28;20687;-60
2022/12/25 08:26:59;;;;;;;2.13;2.03;;;;;;;8.61;100.00;98465.25;4194973;28;20206;-60
2022/12/25 08:29:01;;;;;;;2.00;1.90;;;;;;;8.62;100.00;98481.34;4215583;28;20721;-62
2022/12/25 08:31:12;;;;;;;3.95;1.42;;;;;;;8.58;100.00;98472.00;4199197;28;20229;-62
2022/12/25 08:33:14;;;;;;;1.60;1.40;;;;;;;8.60;100.00;98479.91;4205813;28;20302;-61
2022/12/25 08:35:16;;;;;;;1.50;1.40;;;;;;;8.69;100.00;98471.13;4198889;28;20961;-62
2022/12/25 08:37:17;;;;;;;1.67;1.58;;;;;;;8.68;100.00;98465.94;4204963;28;20314;-61
2022/12/25 08:39:19;;;;;;;2.75;2.00;;;;;;;8.73;100.00;98469.59;4197400;28;20353;-61
2022/12/25 08:41:21;;;;;;;6.15;1.58;;;;;;;8.77;100.00;98480.84;4198498;28;20226;-61
2022/12/25 08:43:23;;;;;;;2.33;1.83;;;;;;;8.86;100.00;98484.88;4186657;28;20232;-62
2022/12/25 08:45:25;;;;;;;1.50;1.40;;;;;;;8.76;100.00;98484.66;4200761;28;20203;-61
2022/12/25 08:47:35;;;;;;;1.92;1.73;;;;;;;8.76;100.00;98479.22;4200645;28;20230;-61
2022/12/25 08:49:37;;;;;;;3.10;1.73;;;;;;;8.87;100.00;98484.63;4197082;28;20257;-61
2022/12/25 08:51:39;;;;;;;2.10;1.88;;;;;;;8.79;100.00;98487.75;4201062;28;20210;-61
2022/12/25 08:53:42;;;;;;;5.65;3.50;;;;;;;8.88;100.00;98490.94;4196244;28;20231;-61
2022/12/25 08:55:44;;;;;;;3.03;2.72;;;;;;;8.78;100.00;98494.28;4194118;28;20210;-61
2022/12/25 08:57:45;;;;;;;11.40;9.10;;;;;;;8.82;100.00;98492.69;4182709;28;20643;-61
2022/12/25 08:59:47;;;;;;;5.25;4.85;;;;;;;8.82;100.00;98483.72;4197807;28;20230;-61
2022/12/25 09:01:49;;;;;;;4.43;4.03;;;;;;;8.82;100.00;98480.97;4199620;28;20251;-61
2022/12/25 09:03:51;;;;;;;4.40;3.47;;;;;;;8.82;100.00;98473.59;4209628;28;20293;-61
2022/12/25 09:05:53;;;;;;;9.45;2.85;;;;;;;8.79;100.00;98473.25;4199848;28;20294;-61
2022/12/25 09:08:07;;;;;;;2.90;2.05;;;;;;;8.83;100.00;98480.72;4213262;27;20233;-61
2022/12/25 09:10:09;;;;;;;3.17;2.75;;;;;;;8.89;100.00;98478.94;4185855;28;20293;-61
2022/12/25 09:12:11;;;;;;;3.20;2.63;;;;;;;8.94;100.00;98481.78;4196743;28;20318;-61
2022/12/25 09:14:13;;;;;;;3.53;2.97;;;;;;;8.97;100.00;98487.59;4200812;28;20244;-61
2022/12/25 09:16:16;;;;;;;3.35;3.05;;;;;;;9.02;100.00;98487.69;4200091;28;20953;-61
2022/12/25 09:18:18;;;;;;;4.93;4.03;;;;;;;9.11;100.00;98488.16;4199766;28;20258;-61
2022/12/25 09:20:20;;;;;;;3.63;3.22;;;;;;;9.10;100.00;98483.75;4201460;28;20226;-61
2022/12/25 09:22:22;;;;;;;3.97;3.58;;;;;;;9.11;100.00;98471.78;4198798;28;21052;-61
2022/12/25 09:24:24;;;;;;;5.53;3.75;;;;;;;9.21;100.00;98472.00;4201718;28;20250;-61
2022/12/25 09:26:26;;;;;;;5.85;2.50;;;;;;;9.24;100.00;98466.88;4203397;28;20207;-60
2022/12/25 09:28:28;;;;;;;3.72;2.63;;;;;;;9.31;100.00;98462.09;4203892;28;20230;-61
2022/12/25 09:30:29;;;;;;;2.97;2.22;;;;;;;9.38;100.00;98467.41;4218295;28;20214;-61
2022/12/25 09:32:31;;;;;;;2.38;2.28;;;;;;;9.38;100.00;98467.41;4215728;28;20198;-61
2022/12/25 09:34:33;;;;;;;2.70;2.45;;;;;;;9.47;100.00;98455.00;4218018;28;20293;-61
2022/12/25 09:36:36;;;;;;;2.55;1.73;;;;;;;9.57;100.00;98455.22;4220154;27;20198;-61
2022/12/25 09:38:37;;;;;;;2.13;1.98;;;;;;;9.70;100.00;98460.38;4201275;28;20230;-61
2022/12/25 09:40:40;;;;;;;1.88;1.70;;;;;;;9.90;100.00;98455.25;4207277;28;20207;-61
2022/12/25 09:42:42;;;;;;;5.93;2.10;;;;;;;10.01;100.00;98451.63;4203221;28;20616;-61
2022/12/25 09:45:14;;;;;;;3.55;3.03;;;;;;;10.05;100.00;98442.72;4201551;28;20214;-61
2022/12/25 09:47:20;;;;;;;2.28;2.13;;;;;;;10.06;100.00;98449.00;4179325;28;20207;-61
2022/12/25 09:49:46;;;;;;;4.18;2.80;;;;;;;10.27;100.00;98448.25;4217783;28;20249;-61
2022/12/25 09:51:52;;;;;;;2.25;1.45;;;;;;;10.45;100.00;98448.81;4220480;27;20244;-61
2022/12/25 09:54:00;;;;;;;2.20;2.00;;;;;;;10.53;100.00;98451.13;4204296;28;20214;-61
2022/12/25 09:56:25;;;;;;;2.28;1.27;;;;;;;10.74;100.00;98463.19;4204481;28;20210;-61
2022/12/25 09:58:28;;;;;;;1.20;1.20;;;;;;;10.89;100.00;98451.38;4204060;28;20234;-61
2022/12/25 10:00:52;;;;;;;1.73;1.25;;;;;;;10.99;100.00;98451.50;4201792;28;20230;-61
2022/12/25 10:03:24;;;;;;;1.10;1.10;;;;;;;11.04;100.00;98459.78;4190327;28;20771;-61
2022/12/25 10:05:43;;;;;;;1.52;1.00;;;;;;;11.21;100.00;98463.28;4202843;28;20666;-61
2022/12/25 10:08:03;;;;;;;1.20;1.02;;;;;;;11.41;100.00;98468.16;4208697;28;20214;-61
2022/12/25 10:10:20;;;;;;;1.52;1.33;;;;;;;11.49;100.00;98457.59;4206359;28;20234;-60
2022/12/25 10:12:31;;;;;;;1.52;1.15;;;;;;;11.47;100.00;98453.44;4218868;27;20282;-59
2022/12/25 10:15:04;;;;;;;1.20;1.10;;;;;;;11.56;100.00;98452.72;4205012;28;20312;-59
2022/12/25 10:17:15;;;;;;;5.03;1.27;;;;;;;11.55;100.00;98451.06;4208530;28;20203;-59
2022/12/25 10:19:28;;;;;;;0.98;0.98;;;;;;;11.52;100.00;98451.56;4206283;28;20277;-61
2022/12/25 10:21:30;;;;;;;1.42;1.25;;;;;;;11.43;100.00;98453.13;4202906;28;20206;-61
2022/12/25 10:24:22;;;;;;;1.60;0.80;;;;;;;11.43;100.00;98453.13;4208065;28;21936;-62
2022/12/25 10:26:24;;;;;;;1.25;1.15;;;;;;;11.49;100.00;98441.13;4156930;28;20325;-61
2022/12/25 10:28:38;;;;;;;1.38;1.27;;;;;;;11.38;100.00;98439.38;4216298;27;20242;-62
2022/12/25 10:30:43;;;;;;;1.17;1.02;;;;;;;11.38;100.00;98444.84;4192077;28;20210;-62
2022/12/25 10:32:46;;;;;;;1.63;1.25;;;;;;;11.37;100.00;98437.72;4200559;28;20266;-62
2022/12/25 10:34:48;;;;;;;1.50;1.25;;;;;;;11.43;100.00;98435.88;4203002;28;20685;-62
2022/12/25 10:36:50;;;;;;;1.98;1.50;;;;;;;11.42;100.00;98421.34;4201831;28;20210;-61
2022/12/25 10:38:52;;;;;;;1.50;1.40;;;;;;;11.53;100.00;98423.13;4189225;28;20288;-61
2022/12/25 10:41:21;;;;;;;2.03;1.85;;;;;;;11.45;100.00;98428.22;4198984;28;20203;-62
2022/12/25 10:43:29;;;;;;;2.10;1.45;;;;;;;11.51;100.00;98428.00;4216458;27;20638;-61
2022/12/25 10:45:41;;;;;;;1.23;1.08;;;;;;;11.48;100.00;98431.28;4185881;28;20207;-61
2022/12/25 10:47:43;;;;;;;1.48;1.30;;;;;;;11.49;100.00;98427.44;4200686;28;20215;-61
2022/12/25 10:49:45;;;;;;;2.13;1.17;;;;;;;11.61;100.00;98422.66;4199304;28;20309;-61
2022/12/25 10:51:47;;;;;;;2.05;1.77;;;;;;;11.62;100.00;98420.75;4197723;28;20285;-61
2022/12/25 10:53:48;;;;;;;11.60;1.67;;;;;;;11.61;100.00;98416.34;4187270;28;20215;-62
2022/12/25 10:56:17;;;;;;;1.58;1.45;;;;;;;11.62;100.00;98418.84;4189441;28;20203;-61
2022/12/25 10:58:19;;;;;;;1.30;1.20;;;;;;;11.66;100.00;98414.50;4192636;28;20254;-61
2022/12/25 11:00:24;;;;;;;1.10;1.00;;;;;;;11.75;100.00;98401.97;4201148;28;20929;-61
2022/12/25 11:02:33;;;;;;;1.58;1.48;;;;;;;11.70;100.00;98403.84;4204608;28;20313;-62
2022/12/25 11:04:35;;;;;;;1.77;1.42;;;;;;;11.66;100.00;98387.09;4196967;28;20257;-61
2022/12/25 11:06:37;;;;;;;1.55;1.27;;;;;;;11.67;100.00;98388.75;4188783;28;20217;-61
2022/12/25 11:08:39;;;;;;;2.17;1.77;;;;;;;11.69;100.00;98385.72;4206201;28;20233;-61
2022/12/25 11:10:42;;;;;;;1.70;1.60;;;;;;;11.75;100.00;98380.03;4201322;28;20238;-61
2022/12/25 11:12:45;;;;;;;1.20;1.15;;;;;;;11.93;100.00;98389.78;4206690;28;20245;-61
2022/12/25 11:14:59;;;;;;;1.60;1.50;;;;;;;12.18;100.00;98385.31;4220480;27;20206;-61
2022/12/25 11:17:08;;;;;;;1.20;1.10;;;;;;;12.37;100.00;98372.81;4202075;28;20243;-61
2022/12/25 11:19:31;;;;;;;1.30;1.20;;;;;;;12.42;100.00;98355.56;4220052;28;20235;-61
2022/12/25 11:21:35;;;;;;;1.15;1.10;;;;;;;12.56;100.00;98360.31;4203870;28;20256;-59
2022/12/25 11:23:43;;;;;;;1.83;1.20;;;;;;;12.66;100.00;98359.53;4188828;28;20298;-59
2022/12/25 11:26:06;;;;;;;1.02;0.82;;;;;;;12.66;100.00;98365.88;4202989;28;20194;-59
2022/12/25 11:28:09;;;;;;;1.25;1.02;;;;;;;12.72;100.00;98359.31;4200675;28;20207;-59
2022/12/25 11:30:14;;;;;;;0.90;0.90;;;;;;;12.70;100.00;98350.50;4184339;28;20239;-59
2022/12/25 11:32:20;;;;;;;1.17;1.17;;;;;;;12.59;100.00;98354.31;4199666;28;21295;-59